createdAt,value
2022-10-23T00:00:12.702Z,14.38
2022-10-23T00:02:14.694Z,15.68
2022-10-23T00:04:20.349Z,14.35
2022-10-23T00:06:23.006Z,13.52
2022-10-23T00:08:24.864Z,17.55
2022-10-23T00:10:28.196Z,13.43
2022-10-23T00:12:30.225Z,12.00
2022-10-23T00:14:33.205Z,13.82
2022-10-23T00:16:35.644Z,14.25
2022-10-23T00:18:38.626Z,12.98
2022-10-23T00:20:40.642Z,14.57
2022-10-23T00:22:42.722Z,13.38
2022-10-23T00:24:45.571Z,15.32
2022-10-23T00:26:50.783Z,13.98
2022-10-23T00:28:54.559Z,22.70
2022-10-23T00:30:57.458Z,19.65
2022-10-23T00:32:59.299Z,16.83
2022-10-23T00:35:01.239Z,14.20
2022-10-23T00:37:03.133Z,16.85
2022-10-23T00:39:06.033Z,14.60
2022-10-23T00:41:09.993Z,16.92
2022-10-23T00:43:20.454Z,15.05
2022-10-23T00:45:26.652Z,21.05
2022-10-23T00:47:28.791Z,13.65
2022-10-23T00:49:32.478Z,16.60
2022-10-23T00:51:43.346Z,14.82
2022-10-23T00:54:00.965Z,13.73
2022-10-23T00:56:11.889Z,19.52
2022-10-23T00:58:18.444Z,16.80
2022-10-23T01:00:41.046Z,20.38
2022-10-23T01:02:43.341Z,15.55
2022-10-23T01:04:45.459Z,14.70
2022-10-23T01:06:49.812Z,14.40
2022-10-23T01:09:00.698Z,17.25
2022-10-23T01:11:15.254Z,14.57
2022-10-23T01:13:38.270Z,14.95
2022-10-23T01:16:02.895Z,13.93
2022-10-23T01:18:34.756Z,20.25
2022-10-23T01:20:43.724Z,14.90
2022-10-23T01:23:05.167Z,15.10
2022-10-23T01:25:36.185Z,18.20
2022-10-23T01:27:42.666Z,16.93
2022-10-23T01:29:49.952Z,14.23
2022-10-23T01:32:41.839Z,14.60
2022-10-23T01:38:57.302Z,16.13
2022-10-23T01:41:19.952Z,17.15
2022-10-23T01:43:30.380Z,19.02
2022-10-23T01:45:40.342Z,17.83
2022-10-23T01:47:43.692Z,19.77
2022-10-23T01:49:47.837Z,19.10
2022-10-23T01:51:54.573Z,16.55
2022-10-23T01:53:59.427Z,18.23
2022-10-23T01:56:05.979Z,27.75
2022-10-23T01:58:08.804Z,22.90
2022-10-23T02:00:14.404Z,17.98
2022-10-23T02:02:22.831Z,23.80
2022-10-23T02:04:36.729Z,18.73
2022-10-23T02:06:38.993Z,22.10
2022-10-23T02:08:40.998Z,18.55
2022-10-23T02:10:49.196Z,22.50
2022-10-23T02:12:58.425Z,18.20
2022-10-23T02:15:21.638Z,23.02
2022-10-23T02:17:46.465Z,23.38
2022-10-23T02:20:00.645Z,20.65
2022-10-23T02:22:11.027Z,21.20
2022-10-23T02:24:16.355Z,19.92
2022-10-23T02:26:24.395Z,20.60
2022-10-23T02:28:40.514Z,19.80
2022-10-23T02:30:46.692Z,20.27
2022-10-23T02:32:51.666Z,21.75
2022-10-23T02:34:53.632Z,19.52
2022-10-23T02:36:55.524Z,20.25
2022-10-23T02:38:57.681Z,20.75
2022-10-23T02:41:14.471Z,23.33
2022-10-23T02:43:34.353Z,20.38
2022-10-23T02:45:51.661Z,23.40
2022-10-23T02:48:04.332Z,20.58
2022-10-23T02:50:17.593Z,23.50
2022-10-23T02:52:28.526Z,23.67
2022-10-23T02:54:54.799Z,22.67
2022-10-23T02:57:40.099Z,23.60
2022-10-23T02:59:58.224Z,23.27
2022-10-23T03:02:16.694Z,20.40
2022-10-23T03:04:24.184Z,23.50
2022-10-23T03:06:26.667Z,26.85
2022-10-23T03:08:30.586Z,23.13
2022-10-23T03:10:32.657Z,25.98
2022-10-23T03:12:36.006Z,26.67
2022-10-23T03:14:41.014Z,22.90
2022-10-23T03:16:42.804Z,19.98
2022-10-23T03:18:44.900Z,20.77
2022-10-23T03:20:46.830Z,22.60
2022-10-23T03:22:48.986Z,23.35
2022-10-23T03:24:50.977Z,23.27
2022-10-23T03:26:52.788Z,27.33
2022-10-23T03:28:54.682Z,23.50
2022-10-23T03:30:56.562Z,26.20
2022-10-23T03:32:58.674Z,25.23
2022-10-23T03:35:00.759Z,24.23
2022-10-23T03:37:02.656Z,21.48
2022-10-23T03:39:05.698Z,25.95
2022-10-23T03:41:07.713Z,23.15
2022-10-23T03:43:09.620Z,25.05
2022-10-23T03:45:11.620Z,24.17
2022-10-23T03:47:13.768Z,23.92
2022-10-23T03:49:15.647Z,22.77
2022-10-23T03:51:17.465Z,21.83
2022-10-23T03:53:19.670Z,23.85
2022-10-23T03:55:21.804Z,21.70
2022-10-23T03:57:24.473Z,24.70
2022-10-23T03:59:26.372Z,22.10
2022-10-23T04:01:28.365Z,24.50
2022-10-23T04:03:30.275Z,25.42
2022-10-23T04:05:32.198Z,25.88
2022-10-23T04:07:34.207Z,24.08
2022-10-23T04:09:36.188Z,25.90
2022-10-23T04:11:39.049Z,22.92
2022-10-23T04:13:40.881Z,20.65
2022-10-23T04:15:49.749Z,20.00
2022-10-23T04:17:51.590Z,20.55
2022-10-23T04:19:53.481Z,20.20
2022-10-23T04:21:57.320Z,21.15
2022-10-23T04:23:59.113Z,20.55
2022-10-23T04:26:03.671Z,21.55
2022-10-23T04:28:05.747Z,19.48
2022-10-23T04:30:09.495Z,25.05
2022-10-23T04:32:11.435Z,22.60
2022-10-23T04:34:13.314Z,25.90
2022-10-23T04:36:15.386Z,21.60
2022-10-23T04:38:17.336Z,23.20
2022-10-23T04:40:19.265Z,23.67
2022-10-23T04:42:21.201Z,29.33
2022-10-23T04:44:23.166Z,21.85
2022-10-23T04:46:25.082Z,21.10
2022-10-23T04:48:29.117Z,24.73
2022-10-23T04:50:31.326Z,21.48
2022-10-23T04:52:33.343Z,23.45
2022-10-23T04:54:40.497Z,23.30
2022-10-23T04:56:42.413Z,20.05
2022-10-23T04:58:44.269Z,19.00
2022-10-23T05:00:47.337Z,24.75
2022-10-23T05:02:49.283Z,23.88
2022-10-23T05:04:51.332Z,24.02
2022-10-23T05:06:57.377Z,25.92
2022-10-23T05:08:59.365Z,22.08
2022-10-23T05:11:01.252Z,22.08
2022-10-23T05:13:04.151Z,25.45
2022-10-23T05:15:06.637Z,22.50
2022-10-23T05:17:21.243Z,22.05
2022-10-23T05:19:28.037Z,21.23
2022-10-23T05:21:35.601Z,23.08
2022-10-23T05:23:41.385Z,22.52
2022-10-23T05:25:43.294Z,21.23
2022-10-23T05:27:46.251Z,20.67
2022-10-23T05:29:48.098Z,21.05
2022-10-23T05:31:54.854Z,22.52
2022-10-23T05:33:57.128Z,20.83
2022-10-23T05:36:00.095Z,19.67
2022-10-23T05:38:02.775Z,18.75
2022-10-23T05:40:05.704Z,20.77
2022-10-23T05:42:07.752Z,21.10
2022-10-23T05:44:09.647Z,17.38
2022-10-23T05:46:11.511Z,18.92
2022-10-23T05:48:30.085Z,17.92
2022-10-23T05:50:38.896Z,20.50
2022-10-23T05:52:41.021Z,17.98
2022-10-23T05:54:46.032Z,18.70
2022-10-23T05:56:48.007Z,21.00
2022-10-23T05:58:49.975Z,17.42
2022-10-23T06:00:52.565Z,17.58
2022-10-23T06:02:54.432Z,19.30
2022-10-23T06:04:56.364Z,19.00
2022-10-23T06:06:58.329Z,17.13
2022-10-23T06:09:00.370Z,17.27
2022-10-23T06:11:07.868Z,14.90
2022-10-23T06:13:09.914Z,15.90
2022-10-23T06:15:12.141Z,20.80
2022-10-23T06:17:14.524Z,25.40
2022-10-23T06:19:16.458Z,17.48
2022-10-23T06:21:18.714Z,19.10
2022-10-23T06:23:20.675Z,20.48
2022-10-23T06:25:22.651Z,18.42
2022-10-23T06:27:24.547Z,17.63
2022-10-23T06:29:27.479Z,20.58
2022-10-23T06:31:29.332Z,15.60
2022-10-23T06:33:31.285Z,15.07
2022-10-23T06:35:33.198Z,17.60
2022-10-23T06:37:35.400Z,17.73
2022-10-23T06:39:37.322Z,18.05
2022-10-23T06:41:42.480Z,18.75
2022-10-23T06:43:44.797Z,23.23
2022-10-23T06:45:47.213Z,17.02
2022-10-23T06:47:52.308Z,18.58
2022-10-23T06:49:54.180Z,17.88
2022-10-23T06:51:56.178Z,18.60
2022-10-23T06:53:58.404Z,20.70
2022-10-23T06:56:01.384Z,22.48
2022-10-23T06:58:03.318Z,17.13
2022-10-23T07:00:05.832Z,20.10
2022-10-23T07:02:07.803Z,19.15
2022-10-23T07:04:09.863Z,23.52
2022-10-23T07:06:12.122Z,14.30
2022-10-23T07:08:14.820Z,16.90
2022-10-23T07:10:16.659Z,19.30
2022-10-23T07:12:18.637Z,14.50
2022-10-23T07:14:20.545Z,14.82
2022-10-23T07:16:23.919Z,14.48
2022-10-23T07:18:26.989Z,19.50
2022-10-23T07:20:28.959Z,17.10
2022-10-23T07:22:30.855Z,21.92
2022-10-23T07:24:37.203Z,13.20
2022-10-23T07:26:42.109Z,13.82
2022-10-23T07:28:46.669Z,13.90
2022-10-23T07:31:01.487Z,13.40
2022-10-23T07:33:04.501Z,15.45
2022-10-23T07:35:07.640Z,15.02
2022-10-23T07:37:09.645Z,15.73
2022-10-23T07:39:12.322Z,19.25
2022-10-23T07:41:14.537Z,21.85
2022-10-23T07:43:18.748Z,32.40
2022-10-23T07:45:20.704Z,23.02
2022-10-23T07:47:22.635Z,23.90
2022-10-23T07:49:24.529Z,24.15
2022-10-23T07:51:36.393Z,25.17
2022-10-23T07:53:39.032Z,29.50
2022-10-23T07:55:44.115Z,22.77
2022-10-23T07:57:46.104Z,21.58
2022-10-23T07:59:48.030Z,26.08
2022-10-23T08:01:52.704Z,20.05
2022-10-23T08:03:57.565Z,22.58
2022-10-23T08:06:00.193Z,20.33
2022-10-23T08:08:02.060Z,20.23
2022-10-23T08:10:04.385Z,24.00
2022-10-23T08:12:09.636Z,18.75
2022-10-23T08:14:11.585Z,19.92
2022-10-23T08:16:13.580Z,20.15
2022-10-23T08:18:16.261Z,17.88
2022-10-23T08:20:18.206Z,23.58
2022-10-23T08:22:20.090Z,18.05
2022-10-23T08:24:22.107Z,23.27
2022-10-23T08:26:25.431Z,23.90
2022-10-23T08:28:28.593Z,20.40
2022-10-23T08:30:30.864Z,16.88
2022-10-23T08:32:32.792Z,19.02
2022-10-23T08:34:34.791Z,19.73
2022-10-23T08:36:36.817Z,17.38
2022-10-23T08:38:38.790Z,18.88
2022-10-23T08:40:48.384Z,16.42
2022-10-23T08:43:11.472Z,20.55
2022-10-23T08:45:34.430Z,21.88
2022-10-23T08:47:55.983Z,16.70
2022-10-23T08:52:14.157Z,16.55
2022-10-23T08:54:28.282Z,20.55
2022-10-23T08:56:44.449Z,16.60
2022-10-23T08:59:09.360Z,18.52
2022-10-23T09:01:28.916Z,18.20
2022-10-23T09:03:30.949Z,15.85
2022-10-23T09:05:55.725Z,15.40
2022-10-23T09:08:00.689Z,15.35
2022-10-23T09:10:14.501Z,16.50
2022-10-23T09:12:25.291Z,15.45
2022-10-23T09:14:42.645Z,16.55
2022-10-23T09:16:50.830Z,19.20
2022-10-23T09:18:54.463Z,13.90
2022-10-23T09:20:56.336Z,20.20
2022-10-23T09:23:01.329Z,16.50
2022-10-23T09:25:03.301Z,18.48
2022-10-23T09:29:19.637Z,13.00
2022-10-23T09:31:21.706Z,16.10
2022-10-23T09:33:26.604Z,14.45
2022-10-23T09:35:30.742Z,20.90
2022-10-23T09:37:36.204Z,19.02
2022-10-23T09:39:38.195Z,13.90
2022-10-23T09:41:40.792Z,13.27
2022-10-23T09:43:43.455Z,15.75
2022-10-23T09:46:06.228Z,15.45
2022-10-23T09:48:14.664Z,14.85
2022-10-23T09:50:23.728Z,15.57
2022-10-23T09:52:39.819Z,16.25
2022-10-23T09:54:47.693Z,14.70
2022-10-23T09:56:49.998Z,15.20
2022-10-23T09:59:02.099Z,17.48
2022-10-23T10:01:05.804Z,15.13
2022-10-23T10:03:19.150Z,12.75
2022-10-23T10:05:29.382Z,14.02
2022-10-23T10:07:33.484Z,14.48
2022-10-23T10:09:38.138Z,14.38
2022-10-23T10:12:10.748Z,12.00
2022-10-23T10:14:54.237Z,17.02
2022-10-23T10:17:17.670Z,11.10
2022-10-23T10:19:33.883Z,17.38
2022-10-23T10:21:59.020Z,23.55
2022-10-23T10:24:28.243Z,34.25
2022-10-23T10:26:59.343Z,14.82
2022-10-23T10:29:48.747Z,10.80
2022-10-23T10:32:15.384Z,22.55
2022-10-23T10:34:33.251Z,11.38
2022-10-23T10:36:54.994Z,14.70
2022-10-23T10:39:01.519Z,11.68
2022-10-23T10:41:20.576Z,11.13
2022-10-23T10:43:39.399Z,11.05
2022-10-23T10:46:03.980Z,11.77
2022-10-23T10:48:08.892Z,12.25
2022-10-23T10:50:16.789Z,17.83
2022-10-23T10:52:27.897Z,13.30
2022-10-23T10:54:54.323Z,18.73
2022-10-23T10:57:00.203Z,12.77
2022-10-23T10:59:10.897Z,10.50
2022-10-23T11:01:38.959Z,11.45
2022-10-23T11:03:52.569Z,10.73
2022-10-23T11:08:44.440Z,24.13
2022-10-23T11:11:16.884Z,11.43
2022-10-23T11:13:29.513Z,14.77
2022-10-23T11:15:41.117Z,10.30
2022-10-23T11:17:49.387Z,11.65
2022-10-23T11:20:06.401Z,12.98
2022-10-23T11:22:17.207Z,9.98
2022-10-23T11:24:21.991Z,11.75
2022-10-23T11:26:42.272Z,13.95
2022-10-23T11:29:03.368Z,12.30
2022-10-23T11:31:14.436Z,9.98
2022-10-23T11:33:22.103Z,11.73
2022-10-23T11:35:45.757Z,8.23
2022-10-23T11:38:13.104Z,10.38
2022-10-23T11:40:26.001Z,12.10
2022-10-23T11:42:45.808Z,13.88
2022-10-23T11:44:50.963Z,10.95
2022-10-23T11:47:05.918Z,13.73
2022-10-23T11:49:21.223Z,10.15
2022-10-23T11:51:38.317Z,10.50
2022-10-23T11:53:40.884Z,11.10
2022-10-23T11:55:58.471Z,9.70
2022-10-23T11:58:31.971Z,12.40
2022-10-23T12:00:40.198Z,11.40
2022-10-23T12:02:43.643Z,13.10
2022-10-23T12:04:52.164Z,9.23
2022-10-23T12:07:01.833Z,10.65
2022-10-23T12:09:09.573Z,3.88
2022-10-23T12:11:51.630Z,3.92
2022-10-23T12:13:53.801Z,2.85
2022-10-23T12:15:58.525Z,3.75
2022-10-23T12:18:16.719Z,10.88
2022-10-23T12:20:24.728Z,8.52
2022-10-23T12:25:04.256Z,17.10
2022-10-23T12:27:26.813Z,10.93
2022-10-23T12:30:15.935Z,9.63
2022-10-23T12:32:28.103Z,11.32
2022-10-23T12:34:29.988Z,12.52
2022-10-23T12:36:43.931Z,11.25
2022-10-23T12:38:47.432Z,12.10
2022-10-23T12:41:03.110Z,11.10
2022-10-23T12:43:23.560Z,16.13
2022-10-23T12:45:29.524Z,11.38
2022-10-23T12:47:32.334Z,9.38
2022-10-23T12:49:35.739Z,13.05
2022-10-23T12:51:38.640Z,9.55
2022-10-23T12:53:41.525Z,11.07
2022-10-23T12:56:01.539Z,9.25
2022-10-23T12:58:04.432Z,9.20
2022-10-23T13:00:12.578Z,8.15
2022-10-23T13:02:21.986Z,11.45
2022-10-23T13:04:28.154Z,10.13
2022-10-23T13:06:30.215Z,12.90
2022-10-23T13:08:45.332Z,9.45
2022-10-23T13:10:49.666Z,12.50
2022-10-23T13:13:05.057Z,9.63
2022-10-23T13:15:06.893Z,11.50
2022-10-23T13:17:11.730Z,9.98
2022-10-23T13:19:27.567Z,12.18
2022-10-23T13:21:31.046Z,13.82
2022-10-23T13:23:35.066Z,11.75
2022-10-23T13:25:39.337Z,11.13
2022-10-23T13:27:41.856Z,9.20
2022-10-23T13:29:44.055Z,12.82
2022-10-23T13:31:46.352Z,12.15
2022-10-23T13:34:01.347Z,10.05
2022-10-23T13:36:05.513Z,12.00
2022-10-23T13:38:11.665Z,12.52
2022-10-23T13:40:28.322Z,12.60
2022-10-23T13:42:30.288Z,11.88
2022-10-23T13:44:37.688Z,10.23
2022-10-23T13:46:39.872Z,10.70
2022-10-23T13:48:41.893Z,21.15
2022-10-23T13:50:47.030Z,12.55
2022-10-23T13:52:49.209Z,12.02
2022-10-23T13:54:51.254Z,10.55
2022-10-23T13:56:56.122Z,10.05
2022-10-23T13:59:00.418Z,11.77
2022-10-23T14:01:02.989Z,9.85
2022-10-23T14:03:05.786Z,12.25
2022-10-23T14:05:10.199Z,12.90
2022-10-23T14:07:12.251Z,11.70
2022-10-23T14:09:17.154Z,12.60
2022-10-23T14:11:21.570Z,11.13
2022-10-23T14:13:24.801Z,14.07
2022-10-23T14:15:27.337Z,11.73
2022-10-23T14:17:29.337Z,11.18
2022-10-23T14:19:33.502Z,13.35
2022-10-23T14:21:35.609Z,20.05
2022-10-23T14:23:38.109Z,10.00
2022-10-23T14:25:40.458Z,9.32
2022-10-23T14:27:42.865Z,7.95
2022-10-23T14:29:45.201Z,11.32
2022-10-23T14:31:47.189Z,12.18
2022-10-23T14:33:57.308Z,9.00
2022-10-23T14:35:59.546Z,12.55
2022-10-23T14:38:01.810Z,9.52
2022-10-23T14:40:05.881Z,10.20
2022-10-23T14:42:07.889Z,11.30
2022-10-23T14:44:10.900Z,9.25
2022-10-23T14:46:16.338Z,8.07
2022-10-23T14:48:18.769Z,10.45
2022-10-23T14:50:21.749Z,11.82
2022-10-23T14:52:24.707Z,9.18
2022-10-23T14:54:28.860Z,8.95
2022-10-23T14:56:34.467Z,14.65
2022-10-23T14:58:36.551Z,10.73
2022-10-23T15:00:39.742Z,12.57
2022-10-23T15:02:42.014Z,10.40
2022-10-23T15:04:44.472Z,9.48
2022-10-23T15:06:47.506Z,10.30
2022-10-23T15:08:55.874Z,13.95
2022-10-23T15:11:01.767Z,11.75
2022-10-23T15:13:03.743Z,13.80
2022-10-23T15:15:07.669Z,15.82
2022-10-23T15:17:15.372Z,12.27
2022-10-23T15:19:18.851Z,16.98
2022-10-23T15:21:21.131Z,12.35
2022-10-23T15:23:23.666Z,14.07
2022-10-23T15:25:27.595Z,12.73
2022-10-23T15:27:29.728Z,10.35
2022-10-23T15:29:32.221Z,13.68
2022-10-23T15:31:41.161Z,9.90
2022-10-23T15:33:43.253Z,10.43
2022-10-23T15:35:45.669Z,14.68
2022-10-23T15:37:47.733Z,10.43
2022-10-23T15:39:50.710Z,11.77
2022-10-23T15:41:56.359Z,10.77
2022-10-23T15:44:00.039Z,12.98
2022-10-23T15:46:03.487Z,13.15
2022-10-23T15:48:06.165Z,12.13
2022-10-23T15:50:09.072Z,12.90
2022-10-23T15:52:11.922Z,11.55
2022-10-23T15:54:17.303Z,12.65
2022-10-23T15:56:19.293Z,11.20
2022-10-23T15:58:22.570Z,12.30
2022-10-23T16:00:24.925Z,11.70
2022-10-23T16:02:27.553Z,13.18
2022-10-23T16:04:30.325Z,12.32
2022-10-23T16:06:32.485Z,12.55
2022-10-23T16:08:35.803Z,12.68
2022-10-23T16:10:42.271Z,12.63
2022-10-23T16:12:44.422Z,17.73
2022-10-23T16:14:47.371Z,12.88
2022-10-23T16:16:49.759Z,12.05
2022-10-23T16:18:52.332Z,13.77
2022-10-23T16:20:56.218Z,15.57
2022-10-23T16:23:01.993Z,22.42
2022-10-23T16:25:05.324Z,26.27
2022-10-23T16:27:07.601Z,24.48
2022-10-23T16:29:11.811Z,22.13
2022-10-23T16:31:20.800Z,28.80
2022-10-23T16:33:22.992Z,24.10
2022-10-23T16:35:25.608Z,18.60
2022-10-23T16:37:27.942Z,12.88
2022-10-23T16:39:31.741Z,13.07
2022-10-23T16:41:34.002Z,16.33
2022-10-23T16:43:37.706Z,16.77
2022-10-23T16:45:40.218Z,16.23
2022-10-23T16:47:45.564Z,13.07
2022-10-23T16:49:50.051Z,15.95
2022-10-23T16:51:54.682Z,12.70
2022-10-23T16:54:00.177Z,13.43
2022-10-23T16:56:11.551Z,16.40
2022-10-23T16:58:20.531Z,15.93
2022-10-23T17:00:23.779Z,12.57
2022-10-23T17:02:27.425Z,12.75
2022-10-23T17:04:29.885Z,17.00
2022-10-23T17:06:36.527Z,24.67
2022-10-23T17:08:42.698Z,31.85
2022-10-23T17:10:50.237Z,31.27
2022-10-23T17:12:54.264Z,27.65
2022-10-23T17:15:02.577Z,25.17
2022-10-23T17:17:19.974Z,23.92
2022-10-23T17:19:43.808Z,24.42
2022-10-23T17:21:55.713Z,23.92
2022-10-23T17:23:59.412Z,28.55
2022-10-23T17:26:04.483Z,20.35
2022-10-23T17:28:06.923Z,14.77
2022-10-23T17:30:12.880Z,15.70
2022-10-23T17:32:17.232Z,15.55
2022-10-23T17:34:23.794Z,15.68
2022-10-23T17:36:29.927Z,21.10
2022-10-23T17:38:36.507Z,18.35
2022-10-23T17:40:40.548Z,19.35
2022-10-23T17:42:43.117Z,18.73
2022-10-23T17:44:50.725Z,20.88
2022-10-23T17:46:55.421Z,17.55
2022-10-23T17:51:07.991Z,20.15
2022-10-23T17:53:11.772Z,22.00
2022-10-23T17:55:15.043Z,21.45
2022-10-23T17:57:20.971Z,25.08
2022-10-23T17:59:30.305Z,23.80
2022-10-23T18:01:34.062Z,22.00
2022-10-23T18:03:37.638Z,24.10
2022-10-23T18:05:41.455Z,24.50
2022-10-23T18:07:49.175Z,28.40
2022-10-23T18:09:54.696Z,28.92
2022-10-23T18:12:00.284Z,28.08
2022-10-23T18:14:04.935Z,27.38
2022-10-23T18:16:12.520Z,34.42
2022-10-23T18:18:25.147Z,29.60
2022-10-23T18:20:33.056Z,29.75
2022-10-23T18:22:35.920Z,30.85
2022-10-23T18:24:41.100Z,31.20
2022-10-23T18:26:45.674Z,30.02
2022-10-23T18:28:51.344Z,24.20
2022-10-23T18:30:57.603Z,23.95
2022-10-23T18:33:10.250Z,24.08
2022-10-23T18:35:16.193Z,25.40
2022-10-23T18:37:19.964Z,22.63
2022-10-23T18:39:29.220Z,25.45
2022-10-23T18:41:39.862Z,22.27
2022-10-23T18:43:58.688Z,20.38
2022-10-23T18:46:09.439Z,21.33
2022-10-23T18:48:28.431Z,26.00
2022-10-23T18:50:36.154Z,24.63
2022-10-23T18:52:39.680Z,28.30
2022-10-23T18:54:43.485Z,29.25
2022-10-23T18:56:54.292Z,37.00
2022-10-23T18:58:58.770Z,49.55
2022-10-23T19:01:04.297Z,31.30
2022-10-23T19:03:18.018Z,42.72
2022-10-23T19:05:21.031Z,28.63
2022-10-23T19:07:24.571Z,26.00
2022-10-23T19:09:27.226Z,27.17
2022-10-23T19:11:29.938Z,26.02
2022-10-23T19:13:39.823Z,28.42
2022-10-23T19:15:44.290Z,31.52
2022-10-23T19:18:02.024Z,30.27
2022-10-23T19:22:37.845Z,27.55
2022-10-23T19:24:52.212Z,28.38
2022-10-23T19:27:01.894Z,34.45
2022-10-23T19:29:08.023Z,32.97
2022-10-23T19:31:17.827Z,27.00
2022-10-23T19:33:31.567Z,30.23
2022-10-23T19:35:34.427Z,127.35
2022-10-23T19:37:48.941Z,31.63
2022-10-23T19:40:07.389Z,50.20
2022-10-23T19:42:11.672Z,62.63
2022-10-23T19:44:17.880Z,61.72
2022-10-23T19:46:25.457Z,56.03
2022-10-23T19:48:36.041Z,65.00
2022-10-23T19:50:38.546Z,52.87
2022-10-23T19:52:44.703Z,50.22
2022-10-23T19:54:59.526Z,43.78
2022-10-23T19:57:08.551Z,51.55
2022-10-23T19:59:13.772Z,54.30
2022-10-23T20:01:18.526Z,53.35
2022-10-23T20:03:22.683Z,47.03
2022-10-23T20:05:31.984Z,55.88
2022-10-23T20:07:46.652Z,50.15
2022-10-23T20:09:50.159Z,47.72
2022-10-23T20:11:54.770Z,48.15
2022-10-23T20:14:00.537Z,54.58
2022-10-23T20:16:03.221Z,57.78
2022-10-23T20:18:09.728Z,45.33
2022-10-23T20:20:15.506Z,56.42
2022-10-23T20:22:21.110Z,47.38
2022-10-23T20:24:28.074Z,52.72
2022-10-23T20:26:30.952Z,49.08
2022-10-23T20:28:37.033Z,47.55
2022-10-23T20:30:43.149Z,48.58
2022-10-23T20:32:48.746Z,45.50
2022-10-23T20:34:53.556Z,50.85
2022-10-23T20:36:56.337Z,42.55
2022-10-23T20:39:01.363Z,46.22
2022-10-23T20:41:07.640Z,54.00
2022-10-23T20:43:10.026Z,51.03
2022-10-23T20:45:12.134Z,51.42
2022-10-23T20:47:17.470Z,47.60
2022-10-23T20:49:20.235Z,52.50
2022-10-23T20:51:24.242Z,50.65
2022-10-23T20:53:27.508Z,46.47
2022-10-23T20:55:29.840Z,47.20
2022-10-23T20:57:32.299Z,52.35
2022-10-23T20:59:37.516Z,42.15
2022-10-23T21:01:42.530Z,44.75
2022-10-23T21:03:51.350Z,41.67
2022-10-23T21:05:53.709Z,39.78
2022-10-23T21:07:56.314Z,41.83
2022-10-23T21:09:59.613Z,41.78
2022-10-23T21:12:01.584Z,43.83
2022-10-23T21:14:04.016Z,44.97
2022-10-23T21:16:14.997Z,42.63
2022-10-23T21:18:33.645Z,43.80
2022-10-23T21:20:40.623Z,41.85
2022-10-23T21:22:42.684Z,37.28
2022-10-23T21:24:45.365Z,35.55
2022-10-23T21:26:47.890Z,36.42
2022-10-23T21:28:56.385Z,36.75
2022-10-23T21:31:13.999Z,34.45
2022-10-23T21:33:16.078Z,31.15
2022-10-23T21:35:17.948Z,32.22
2022-10-23T21:37:22.144Z,38.15
2022-10-23T21:39:24.207Z,32.65
2022-10-23T21:41:32.094Z,34.65
2022-10-23T21:43:34.906Z,33.65
2022-10-23T21:45:36.953Z,34.58
2022-10-23T21:47:39.116Z,32.30
2022-10-23T21:49:41.006Z,29.00
2022-10-23T21:51:43.328Z,29.33
2022-10-23T21:53:45.295Z,28.42
2022-10-23T21:55:47.300Z,30.58
2022-10-23T21:57:49.493Z,26.33
2022-10-23T21:59:54.254Z,30.33
2022-10-23T22:01:56.505Z,25.70
2022-10-23T22:03:58.830Z,25.23
2022-10-23T22:06:01.749Z,22.20
2022-10-23T22:08:04.211Z,22.67
2022-10-23T22:10:07.634Z,23.42
2022-10-23T22:12:12.829Z,21.83
2022-10-23T22:14:14.733Z,21.85
2022-10-23T22:16:17.833Z,20.10
2022-10-23T22:18:19.921Z,20.63
2022-10-23T22:20:21.856Z,21.35
2022-10-23T22:22:24.057Z,21.33
2022-10-23T22:24:26.034Z,19.10
2022-10-23T22:26:31.293Z,20.08
2022-10-23T22:28:33.354Z,18.08
2022-10-23T22:30:38.196Z,16.95
2022-10-23T22:32:40.268Z,22.67
2022-10-23T22:34:52.362Z,17.20
2022-10-23T22:36:56.573Z,16.77
2022-10-23T22:38:58.560Z,15.63
2022-10-23T22:41:02.248Z,14.60
2022-10-23T22:43:07.607Z,16.77
2022-10-23T22:45:10.830Z,14.00
2022-10-23T22:47:12.737Z,14.75
2022-10-23T22:49:14.889Z,15.05
2022-10-23T22:51:19.180Z,17.13
2022-10-23T22:53:21.173Z,16.20
2022-10-23T22:55:24.148Z,16.33
2022-10-23T22:59:29.107Z,15.68
2022-10-23T23:01:35.202Z,17.15
2022-10-23T23:03:37.746Z,16.40
2022-10-23T23:05:47.885Z,15.90
2022-10-23T23:07:50.973Z,17.45
2022-10-23T23:09:55.561Z,18.25
2022-10-23T23:11:58.007Z,17.67
2022-10-23T23:14:01.279Z,15.68
2022-10-23T23:16:04.546Z,16.33
2022-10-23T23:18:06.868Z,16.85
2022-10-23T23:20:09.559Z,16.30
2022-10-23T23:22:11.452Z,15.35
2022-10-23T23:24:13.487Z,16.70
2022-10-23T23:26:16.313Z,15.38
2022-10-23T23:28:21.442Z,14.63
2022-10-23T23:30:23.788Z,17.27
2022-10-23T23:32:25.778Z,16.77
2022-10-23T23:34:27.939Z,14.13
2022-10-23T23:36:30.038Z,14.30
2022-10-23T23:38:31.912Z,16.80
2022-10-23T23:40:34.212Z,15.82
2022-10-23T23:42:37.166Z,14.80
2022-10-23T23:44:45.951Z,14.27
2022-10-23T23:46:58.830Z,18.67
2022-10-23T23:49:01.812Z,16.88
2022-10-23T23:51:04.861Z,15.43
2022-10-23T23:53:06.883Z,13.35
2022-10-23T23:55:09.231Z,13.07
2022-10-23T23:57:13.174Z,16.30
2022-10-23T23:59:16.255Z,13.43
